sensor_id;sensor_type;location;lat;lon;timestamp;temperature;humidity
19164;DHT22;9714;51.208;4.242;2023-12-28T00:01:54;11.50;99.90
19164;DHT22;9714;51.208;4.242;2023-12-28T00:04:22;11.60;99.90
19164;DHT22;9714;51.208;4.242;2023-12-28T00:06:49;11.50;99.90
19164;DHT22;9714;51.208;4.242;2023-12-28T00:09:18;11.50;99.90
19164;DHT22;9714;51.208;4.242;2023-12-28T00:11:45;11.60;99.90
19164;DHT22;9714;51.208;4.242;2023-12-28T00:14:14;11.60;99.90
19164;DHT22;9714;51.208;4.242;2023-12-28T00:16:44;11.40;99.90
19164;DHT22;9714;51.208;4.242;2023-12-28T00:19:17;11.50;99.90
19164;DHT22;9714;51.208;4.242;2023-12-28T00:21:51;11.60;99.90
19164;DHT22;9714;51.208;4.242;2023-12-28T00:24:22;11.60;99.90
19164;DHT22;9714;51.208;4.242;2023-12-28T00:26:50;11.60;99.90
19164;DHT22;9714;51.208;4.242;2023-12-28T00:29:19;11.60;99.90
19164;DHT22;9714;51.208;4.242;2023-12-28T00:31:48;11.50;99.90
19164;DHT22;9714;51.208;4.242;2023-12-28T00:34:16;11.50;99.90
19164;DHT22;9714;51.208;4.242;2023-12-28T00:36:43;11.50;99.90
19164;DHT22;9714;51.208;4.242;2023-12-28T00:39:10;11.60;99.90
19164;DHT22;9714;51.208;4.242;2023-12-28T00:41:39;11.50;99.90
19164;DHT22;9714;51.208;4.242;2023-12-28T00:44:18;11.60;99.90
19164;DHT22;9714;51.208;4.242;2023-12-28T00:46:51;11.70;99.90
19164;DHT22;9714;51.208;4.242;2023-12-28T00:49:20;11.60;99.90
19164;DHT22;9714;51.208;4.242;2023-12-28T00:51:47;11.60;99.90
19164;DHT22;9714;51.208;4.242;2023-12-28T00:54:14;11.50;99.90
19164;DHT22;9714;51.208;4.242;2023-12-28T00:56:45;11.50;99.90
19164;DHT22;9714;51.208;4.242;2023-12-28T00:59:14;11.50;99.90
19164;DHT22;9714;51.208;4.242;2023-12-28T01:01:41;11.50;99.90
19164;DHT22;9714;51.208;4.242;2023-12-28T01:04:08;11.50;99.90
19164;DHT22;9714;51.208;4.242;2023-12-28T01:06:36;11.50;99.90
19164;DHT22;9714;51.208;4.242;2023-12-28T01:09:03;11.50;99.90
19164;DHT22;9714;51.208;4.242;2023-12-28T01:11:30;11.50;99.90
19164;DHT22;9714;51.208;4.242;2023-12-28T01:13:59;11.50;99.90
19164;DHT22;9714;51.208;4.242;2023-12-28T01:16:30;11.60;99.90
19164;DHT22;9714;51.208;4.242;2023-12-28T01:18:58;11.50;99.90
19164;DHT22;9714;51.208;4.242;2023-12-28T01:21:25;11.60;99.90
19164;DHT22;9714;51.208;4.242;2023-12-28T01:23:53;11.60;99.90
19164;DHT22;9714;51.208;4.242;2023-12-28T01:26:21;11.60;99.90
19164;DHT22;9714;51.208;4.242;2023-12-28T01:28:49;11.60;99.90
19164;DHT22;9714;51.208;4.242;2023-12-28T01:31:17;11.50;99.90
19164;DHT22;9714;51.208;4.242;2023-12-28T01:33:44;11.60;99.90
19164;DHT22;9714;51.208;4.242;2023-12-28T01:36:18;11.40;99.90
19164;DHT22;9714;51.208;4.242;2023-12-28T01:38:45;11.50;99.90
19164;DHT22;9714;51.208;4.242;2023-12-28T01:41:12;11.50;99.90
19164;DHT22;9714;51.208;4.242;2023-12-28T01:43:42;11.60;99.90
19164;DHT22;9714;51.208;4.242;2023-12-28T01:46:17;11.50;99.90
19164;DHT22;9714;51.208;4.242;2023-12-28T01:48:47;11.50;99.90
19164;DHT22;9714;51.208;4.242;2023-12-28T01:51:18;11.40;99.90
19164;DHT22;9714;51.208;4.242;2023-12-28T01:53:50;11.50;99.90
19164;DHT22;9714;51.208;4.242;2023-12-28T01:56:18;11.50;99.90
19164;DHT22;9714;51.208;4.242;2023-12-28T01:58:48;11.50;99.90
19164;DHT22;9714;51.208;4.242;2023-12-28T02:01:23;11.50;99.90
19164;DHT22;9714;51.208;4.242;2023-12-28T02:03:54;11.60;99.90
19164;DHT22;9714;51.208;4.242;2023-12-28T02:06:23;11.50;99.90
19164;DHT22;9714;51.208;4.242;2023-12-28T02:08:53;11.50;99.90
19164;DHT22;9714;51.208;4.242;2023-12-28T02:11:22;11.40;99.90
19164;DHT22;9714;51.208;4.242;2023-12-28T02:13:55;11.40;99.90
19164;DHT22;9714;51.208;4.242;2023-12-28T02:16:32;11.40;99.90
19164;DHT22;9714;51.208;4.242;2023-12-28T02:19:07;11.40;99.90
19164;DHT22;9714;51.208;4.242;2023-12-28T02:21:40;11.50;99.90
19164;DHT22;9714;51.208;4.242;2023-12-28T02:24:10;11.40;99.90
19164;DHT22;9714;51.208;4.242;2023-12-28T02:26:40;11.40;99.90
19164;DHT22;9714;51.208;4.242;2023-12-28T02:29:09;11.40;99.90
19164;DHT22;9714;51.208;4.242;2023-12-28T02:31:43;11.40;99.90
19164;DHT22;9714;51.208;4.242;2023-12-28T02:34:15;11.30;99.90
19164;DHT22;9714;51.208;4.242;2023-12-28T02:36:47;11.30;99.90
19164;DHT22;9714;51.208;4.242;2023-12-28T02:39:16;11.30;99.90
19164;DHT22;9714;51.208;4.242;2023-12-28T02:41:46;11.30;99.90
19164;DHT22;9714;51.208;4.242;2023-12-28T02:44:15;11.30;99.90
19164;DHT22;9714;51.208;4.242;2023-12-28T02:46:43;11.30;99.90
19164;DHT22;9714;51.208;4.242;2023-12-28T02:49:10;11.30;99.90
19164;DHT22;9714;51.208;4.242;2023-12-28T02:51:38;11.40;99.90
19164;DHT22;9714;51.208;4.242;2023-12-28T02:54:05;11.30;99.90
19164;DHT22;9714;51.208;4.242;2023-12-28T02:56:39;11.30;99.90
19164;DHT22;9714;51.208;4.242;2023-12-28T02:59:11;11.40;99.90
19164;DHT22;9714;51.208;4.242;2023-12-28T03:01:44;11.40;99.90
19164;DHT22;9714;51.208;4.242;2023-12-28T03:04:13;11.40;99.90
19164;DHT22;9714;51.208;4.242;2023-12-28T03:06:41;11.40;99.90
19164;DHT22;9714;51.208;4.242;2023-12-28T03:09:10;11.40;99.90
19164;DHT22;9714;51.208;4.242;2023-12-28T03:11:38;11.40;99.90
19164;DHT22;9714;51.208;4.242;2023-12-28T03:14:07;11.40;99.90
19164;DHT22;9714;51.208;4.242;2023-12-28T03:16:37;11.40;99.90
19164;DHT22;9714;51.208;4.242;2023-12-28T03:19:05;11.40;99.90
19164;DHT22;9714;51.208;4.242;2023-12-28T03:21:39;11.40;99.90
19164;DHT22;9714;51.208;4.242;2023-12-28T03:24:25;11.40;99.90
19164;DHT22;9714;51.208;4.242;2023-12-28T03:26:55;11.60;99.90
19164;DHT22;9714;51.208;4.242;2023-12-28T03:29:41;11.60;99.90
19164;DHT22;9714;51.208;4.242;2023-12-28T03:32:12;11.50;99.90
19164;DHT22;9714;51.208;4.242;2023-12-28T03:34:39;11.60;99.90
19164;DHT22;9714;51.208;4.242;2023-12-28T03:37:09;11.60;99.90
19164;DHT22;9714;51.208;4.242;2023-12-28T03:42:55;11.50;99.90
19164;DHT22;9714;51.208;4.242;2023-12-28T03:48:44;11.50;99.90
19164;DHT22;9714;51.208;4.242;2023-12-28T03:51:14;11.50;99.90
19164;DHT22;9714;51.208;4.242;2023-12-28T03:53:42;11.40;99.90
19164;DHT22;9714;51.208;4.242;2023-12-28T03:56:19;11.40;99.90
19164;DHT22;9714;51.208;4.242;2023-12-28T03:58:47;11.50;99.90
19164;DHT22;9714;51.208;4.242;2023-12-28T04:01:15;11.50;99.90
19164;DHT22;9714;51.208;4.242;2023-12-28T04:03:44;11.50;99.90
19164;DHT22;9714;51.208;4.242;2023-12-28T04:06:11;11.60;99.90
19164;DHT22;9714;51.208;4.242;2023-12-28T04:08:39;11.60;99.90
19164;DHT22;9714;51.208;4.242;2023-12-28T04:11:06;11.60;99.90
19164;DHT22;9714;51.208;4.242;2023-12-28T04:13:33;11.70;99.90
19164;DHT22;9714;51.208;4.242;2023-12-28T04:16:00;11.60;99.90
19164;DHT22;9714;51.208;4.242;2023-12-28T04:18:30;11.50;99.90
19164;DHT22;9714;51.208;4.242;2023-12-28T04:21:02;11.60;99.90
19164;DHT22;9714;51.208;4.242;2023-12-28T04:23:36;11.50;99.90
19164;DHT22;9714;51.208;4.242;2023-12-28T04:26:04;11.60;99.90
19164;DHT22;9714;51.208;4.242;2023-12-28T04:28:35;11.60;99.90
19164;DHT22;9714;51.208;4.242;2023-12-28T04:31:03;11.70;99.90
19164;DHT22;9714;51.208;4.242;2023-12-28T04:33:30;11.80;99.90
19164;DHT22;9714;51.208;4.242;2023-12-28T04:36:01;11.80;99.90
19164;DHT22;9714;51.208;4.242;2023-12-28T04:38:34;11.70;99.90
19164;DHT22;9714;51.208;4.242;2023-12-28T04:41:02;11.60;99.90
19164;DHT22;9714;51.208;4.242;2023-12-28T04:43:32;11.60;99.90
19164;DHT22;9714;51.208;4.242;2023-12-28T04:46:03;11.50;99.90
19164;DHT22;9714;51.208;4.242;2023-12-28T04:48:30;11.40;99.90
19164;DHT22;9714;51.208;4.242;2023-12-28T04:51:04;11.40;99.90
19164;DHT22;9714;51.208;4.242;2023-12-28T04:53:31;11.40;99.90
19164;DHT22;9714;51.208;4.242;2023-12-28T04:56:01;11.20;99.90
19164;DHT22;9714;51.208;4.242;2023-12-28T04:58:28;11.30;99.90
19164;DHT22;9714;51.208;4.242;2023-12-28T05:00:55;11.30;99.90
19164;DHT22;9714;51.208;4.242;2023-12-28T05:03:28;11.30;99.90
19164;DHT22;9714;51.208;4.242;2023-12-28T05:05:56;11.30;99.90
19164;DHT22;9714;51.208;4.242;2023-12-28T05:08:24;11.30;99.90
19164;DHT22;9714;51.208;4.242;2023-12-28T05:10:51;11.40;99.90
19164;DHT22;9714;51.208;4.242;2023-12-28T05:13:21;11.30;99.90
19164;DHT22;9714;51.208;4.242;2023-12-28T05:15:49;11.30;99.90
19164;DHT22;9714;51.208;4.242;2023-12-28T05:18:16;11.30;99.90
19164;DHT22;9714;51.208;4.242;2023-12-28T05:20:44;11.30;99.90
19164;DHT22;9714;51.208;4.242;2023-12-28T05:23:14;11.20;99.90
19164;DHT22;9714;51.208;4.242;2023-12-28T05:25:47;11.20;99.90
19164;DHT22;9714;51.208;4.242;2023-12-28T05:28:18;11.30;99.90
19164;DHT22;9714;51.208;4.242;2023-12-28T05:30:47;11.10;99.90
19164;DHT22;9714;51.208;4.242;2023-12-28T05:33:15;11.10;99.90
19164;DHT22;9714;51.208;4.242;2023-12-28T05:35:42;11.10;99.90
19164;DHT22;9714;51.208;4.242;2023-12-28T05:38:09;11.10;99.90
19164;DHT22;9714;51.208;4.242;2023-12-28T05:40:37;11.10;99.90
19164;DHT22;9714;51.208;4.242;2023-12-28T05:43:05;11.10;99.90
19164;DHT22;9714;51.208;4.242;2023-12-28T05:45:32;11.10;99.90
19164;DHT22;9714;51.208;4.242;2023-12-28T05:48:00;11.30;99.90
19164;DHT22;9714;51.208;4.242;2023-12-28T05:50:30;11.20;99.90
19164;DHT22;9714;51.208;4.242;2023-12-28T05:52:58;11.40;99.90
19164;DHT22;9714;51.208;4.242;2023-12-28T05:55:25;11.30;99.90
19164;DHT22;9714;51.208;4.242;2023-12-28T05:57:53;11.30;99.90
19164;DHT22;9714;51.208;4.242;2023-12-28T06:00:20;11.30;99.90
19164;DHT22;9714;51.208;4.242;2023-12-28T06:02:47;11.30;99.90
19164;DHT22;9714;51.208;4.242;2023-12-28T06:05:18;11.40;99.90
19164;DHT22;9714;51.208;4.242;2023-12-28T06:07:46;11.40;99.90
19164;DHT22;9714;51.208;4.242;2023-12-28T06:10:14;11.40;99.90
19164;DHT22;9714;51.208;4.242;2023-12-28T06:12:41;11.40;99.90
19164;DHT22;9714;51.208;4.242;2023-12-28T06:15:09;11.40;99.90
19164;DHT22;9714;51.208;4.242;2023-12-28T06:17:36;11.40;99.90
19164;DHT22;9714;51.208;4.242;2023-12-28T06:20:05;11.30;99.90
19164;DHT22;9714;51.208;4.242;2023-12-28T06:22:36;11.30;99.90
19164;DHT22;9714;51.208;4.242;2023-12-28T06:25:04;11.40;99.90
19164;DHT22;9714;51.208;4.242;2023-12-28T06:27:37;11.40;99.90
19164;DHT22;9714;51.208;4.242;2023-12-28T06:30:07;11.30;99.90
19164;DHT22;9714;51.208;4.242;2023-12-28T06:32:34;11.20;99.90
19164;DHT22;9714;51.208;4.242;2023-12-28T06:35:01;11.30;99.90
19164;DHT22;9714;51.208;4.242;2023-12-28T06:37:28;11.20;99.90
19164;DHT22;9714;51.208;4.242;2023-12-28T06:39:57;11.20;99.90
19164;DHT22;9714;51.208;4.242;2023-12-28T06:42:24;11.30;99.90
19164;DHT22;9714;51.208;4.242;2023-12-28T06:44:51;11.20;99.90
19164;DHT22;9714;51.208;4.242;2023-12-28T06:47:18;11.20;99.90
19164;DHT22;9714;51.208;4.242;2023-12-28T06:49:46;11.30;99.90
19164;DHT22;9714;51.208;4.242;2023-12-28T06:52:13;11.20;99.90
19164;DHT22;9714;51.208;4.242;2023-12-28T06:54:40;11.20;99.90
19164;DHT22;9714;51.208;4.242;2023-12-28T06:57:09;11.20;99.90
19164;DHT22;9714;51.208;4.242;2023-12-28T06:59:36;11.10;99.90
19164;DHT22;9714;51.208;4.242;2023-12-28T07:02:03;11.10;99.90
19164;DHT22;9714;51.208;4.242;2023-12-28T07:04:31;11.20;99.90
19164;DHT22;9714;51.208;4.242;2023-12-28T07:06:58;11.20;99.90
19164;DHT22;9714;51.208;4.242;2023-12-28T07:09:26;11.20;99.90
19164;DHT22;9714;51.208;4.242;2023-12-28T07:11:53;11.20;99.90
19164;DHT22;9714;51.208;4.242;2023-12-28T07:14:21;11.20;99.90
19164;DHT22;9714;51.208;4.242;2023-12-28T07:16:49;11.40;99.90
19164;DHT22;9714;51.208;4.242;2023-12-28T07:19:16;11.30;99.90
19164;DHT22;9714;51.208;4.242;2023-12-28T07:21:43;11.30;99.90
19164;DHT22;9714;51.208;4.242;2023-12-28T07:24:10;11.20;99.90
19164;DHT22;9714;51.208;4.242;2023-12-28T07:26:40;11.20;99.90
19164;DHT22;9714;51.208;4.242;2023-12-28T07:29:07;11.20;99.90
19164;DHT22;9714;51.208;4.242;2023-12-28T07:31:36;11.20;99.90
19164;DHT22;9714;51.208;4.242;2023-12-28T07:34:03;11.30;99.90
19164;DHT22;9714;51.208;4.242;2023-12-28T07:36:31;11.30;99.90
19164;DHT22;9714;51.208;4.242;2023-12-28T07:38:58;11.20;99.90
19164;DHT22;9714;51.208;4.242;2023-12-28T07:41:26;11.30;99.90
19164;DHT22;9714;51.208;4.242;2023-12-28T07:43:53;11.30;99.90
19164;DHT22;9714;51.208;4.242;2023-12-28T07:46:20;11.40;99.90
19164;DHT22;9714;51.208;4.242;2023-12-28T07:48:49;11.30;99.90
19164;DHT22;9714;51.208;4.242;2023-12-28T07:51:16;11.40;99.90
19164;DHT22;9714;51.208;4.242;2023-12-28T07:53:43;11.50;99.90
19164;DHT22;9714;51.208;4.242;2023-12-28T07:56:12;11.40;99.90
19164;DHT22;9714;51.208;4.242;2023-12-28T07:58:39;11.40;99.90
19164;DHT22;9714;51.208;4.242;2023-12-28T08:01:12;11.20;99.90
19164;DHT22;9714;51.208;4.242;2023-12-28T08:03:42;11.30;99.90
19164;DHT22;9714;51.208;4.242;2023-12-28T08:06:10;11.20;99.90
19164;DHT22;9714;51.208;4.242;2023-12-28T08:08:38;11.20;99.90
19164;DHT22;9714;51.208;4.242;2023-12-28T08:11:09;11.10;99.90
19164;DHT22;9714;51.208;4.242;2023-12-28T08:13:38;11.00;99.90
19164;DHT22;9714;51.208;4.242;2023-12-28T08:16:06;11.10;99.90
19164;DHT22;9714;51.208;4.242;2023-12-28T08:18:35;11.10;99.90
19164;DHT22;9714;51.208;4.242;2023-12-28T08:21:06;11.10;99.90
19164;DHT22;9714;51.208;4.242;2023-12-28T08:23:36;11.20;99.90
19164;DHT22;9714;51.208;4.242;2023-12-28T08:26:04;11.20;99.90
19164;DHT22;9714;51.208;4.242;2023-12-28T08:28:33;11.40;99.90
19164;DHT22;9714;51.208;4.242;2023-12-28T08:31:01;11.40;99.90
19164;DHT22;9714;51.208;4.242;2023-12-28T08:33:48;11.60;99.90
19164;DHT22;9714;51.208;4.242;2023-12-28T08:36:33;11.60;99.90
19164;DHT22;9714;51.208;4.242;2023-12-28T08:39:02;11.70;99.90
19164;DHT22;9714;51.208;4.242;2023-12-28T08:41:38;11.70;99.90
19164;DHT22;9714;51.208;4.242;2023-12-28T08:44:05;11.70;99.90
19164;DHT22;9714;51.208;4.242;2023-12-28T08:46:38;11.70;99.90
19164;DHT22;9714;51.208;4.242;2023-12-28T08:49:06;11.90;99.90
19164;DHT22;9714;51.208;4.242;2023-12-28T08:51:34;11.90;99.90
19164;DHT22;9714;51.208;4.242;2023-12-28T08:54:06;11.90;99.90
19164;DHT22;9714;51.208;4.242;2023-12-28T08:56:34;11.90;99.90
19164;DHT22;9714;51.208;4.242;2023-12-28T08:59:07;11.90;99.90
19164;DHT22;9714;51.208;4.242;2023-12-28T09:01:35;12.00;99.90
19164;DHT22;9714;51.208;4.242;2023-12-28T09:04:04;11.80;99.90
19164;DHT22;9714;51.208;4.242;2023-12-28T09:06:32;11.90;99.90
19164;DHT22;9714;51.208;4.242;2023-12-28T09:09:15;11.80;99.90
19164;DHT22;9714;51.208;4.242;2023-12-28T09:11:44;11.70;99.90
19164;DHT22;9714;51.208;4.242;2023-12-28T09:14:12;11.70;99.90
19164;DHT22;9714;51.208;4.242;2023-12-28T09:16:51;11.80;99.90
19164;DHT22;9714;51.208;4.242;2023-12-28T09:19:22;11.80;99.90
19164;DHT22;9714;51.208;4.242;2023-12-28T09:21:55;11.80;99.90
19164;DHT22;9714;51.208;4.242;2023-12-28T09:24:30;12.00;99.90
19164;DHT22;9714;51.208;4.242;2023-12-28T09:26:58;12.10;99.90
19164;DHT22;9714;51.208;4.242;2023-12-28T09:29:25;12.20;99.90
19164;DHT22;9714;51.208;4.242;2023-12-28T09:31:55;12.20;99.90
19164;DHT22;9714;51.208;4.242;2023-12-28T09:34:28;12.40;99.90
19164;DHT22;9714;51.208;4.242;2023-12-28T09:36:56;12.20;99.90
19164;DHT22;9714;51.208;4.242;2023-12-28T09:39:23;12.10;99.90
19164;DHT22;9714;51.208;4.242;2023-12-28T09:41:58;12.00;99.90
19164;DHT22;9714;51.208;4.242;2023-12-28T09:44:29;12.10;99.90
19164;DHT22;9714;51.208;4.242;2023-12-28T09:47:02;12.10;99.90
19164;DHT22;9714;51.208;4.242;2023-12-28T09:49:32;12.30;99.90
19164;DHT22;9714;51.208;4.242;2023-12-28T09:52:01;12.40;99.90
19164;DHT22;9714;51.208;4.242;2023-12-28T09:54:31;12.50;99.90
19164;DHT22;9714;51.208;4.242;2023-12-28T09:57:01;12.50;99.90
19164;DHT22;9714;51.208;4.242;2023-12-28T09:59:28;12.50;99.90
19164;DHT22;9714;51.208;4.242;2023-12-28T10:01:57;12.60;99.90
19164;DHT22;9714;51.208;4.242;2023-12-28T10:04:38;12.60;99.90
19164;DHT22;9714;51.208;4.242;2023-12-28T10:07:11;12.70;99.90
19164;DHT22;9714;51.208;4.242;2023-12-28T10:09:38;12.60;99.90
19164;DHT22;9714;51.208;4.242;2023-12-28T10:12:08;12.70;99.90
19164;DHT22;9714;51.208;4.242;2023-12-28T10:14:36;12.90;99.90
19164;DHT22;9714;51.208;4.242;2023-12-28T10:17:04;12.80;99.90
19164;DHT22;9714;51.208;4.242;2023-12-28T10:19:31;12.80;99.90
19164;DHT22;9714;51.208;4.242;2023-12-28T10:22:04;12.80;99.90
19164;DHT22;9714;51.208;4.242;2023-12-28T10:24:33;12.90;99.90
19164;DHT22;9714;51.208;4.242;2023-12-28T10:27:02;13.00;99.90
19164;DHT22;9714;51.208;4.242;2023-12-28T10:29:31;13.00;99.90
19164;DHT22;9714;51.208;4.242;2023-12-28T10:31:58;13.20;99.90
19164;DHT22;9714;51.208;4.242;2023-12-28T10:34:25;13.30;99.90
19164;DHT22;9714;51.208;4.242;2023-12-28T10:36:53;13.30;99.90
19164;DHT22;9714;51.208;4.242;2023-12-28T10:39:22;13.40;99.90
19164;DHT22;9714;51.208;4.242;2023-12-28T10:41:54;13.20;99.90
19164;DHT22;9714;51.208;4.242;2023-12-28T10:44:23;13.20;99.90
19164;DHT22;9714;51.208;4.242;2023-12-28T10:46:57;13.10;99.90
19164;DHT22;9714;51.208;4.242;2023-12-28T10:49:30;13.20;99.90
19164;DHT22;9714;51.208;4.242;2023-12-28T10:52:00;13.00;99.90
19164;DHT22;9714;51.208;4.242;2023-12-28T10:54:37;13.10;99.90
19164;DHT22;9714;51.208;4.242;2023-12-28T10:57:14;13.20;99.90
19164;DHT22;9714;51.208;4.242;2023-12-28T10:59:52;13.10;99.90
19164;DHT22;9714;51.208;4.242;2023-12-28T11:02:26;13.10;99.90
19164;DHT22;9714;51.208;4.242;2023-12-28T11:04:55;12.90;99.90
19164;DHT22;9714;51.208;4.242;2023-12-28T11:07:23;12.90;99.90
19164;DHT22;9714;51.208;4.242;2023-12-28T11:09:59;12.80;99.90
19164;DHT22;9714;51.208;4.242;2023-12-28T11:12:27;12.80;99.90
19164;DHT22;9714;51.208;4.242;2023-12-28T11:14:56;12.90;99.90
19164;DHT22;9714;51.208;4.242;2023-12-28T11:17:28;13.10;99.90
19164;DHT22;9714;51.208;4.242;2023-12-28T11:19:57;13.00;99.90
19164;DHT22;9714;51.208;4.242;2023-12-28T11:22:26;12.90;99.90
19164;DHT22;9714;51.208;4.242;2023-12-28T11:24:56;12.80;99.90
19164;DHT22;9714;51.208;4.242;2023-12-28T11:27:25;12.90;99.90
19164;DHT22;9714;51.208;4.242;2023-12-28T11:29:52;12.90;99.90
19164;DHT22;9714;51.208;4.242;2023-12-28T11:32:20;13.10;99.90
19164;DHT22;9714;51.208;4.242;2023-12-28T11:35:07;13.00;99.90
19164;DHT22;9714;51.208;4.242;2023-12-28T11:37:38;13.00;99.90
19164;DHT22;9714;51.208;4.242;2023-12-28T11:40:11;12.90;99.90
19164;DHT22;9714;51.208;4.242;2023-12-28T11:42:49;12.90;99.90
19164;DHT22;9714;51.208;4.242;2023-12-28T11:45:17;12.90;99.90
19164;DHT22;9714;51.208;4.242;2023-12-28T11:47:45;12.90;99.90
19164;DHT22;9714;51.208;4.242;2023-12-28T11:50:15;12.60;99.90
19164;DHT22;9714;51.208;4.242;2023-12-28T11:52:42;12.60;99.90
19164;DHT22;9714;51.208;4.242;2023-12-28T11:55:09;12.80;99.90
19164;DHT22;9714;51.208;4.242;2023-12-28T11:57:37;12.70;99.90
19164;DHT22;9714;51.208;4.242;2023-12-28T12:00:07;12.80;99.90
19164;DHT22;9714;51.208;4.242;2023-12-28T12:02:34;12.70;99.90
19164;DHT22;9714;51.208;4.242;2023-12-28T12:05:16;12.80;99.90
19164;DHT22;9714;51.208;4.242;2023-12-28T12:07:44;12.80;99.90
19164;DHT22;9714;51.208;4.242;2023-12-28T12:10:15;12.70;99.90
19164;DHT22;9714;51.208;4.242;2023-12-28T12:12:43;12.70;99.90
19164;DHT22;9714;51.208;4.242;2023-12-28T12:15:10;12.70;99.90
19164;DHT22;9714;51.208;4.242;2023-12-28T12:17:44;12.80;99.90
19164;DHT22;9714;51.208;4.242;2023-12-28T12:20:19;12.90;99.90
19164;DHT22;9714;51.208;4.242;2023-12-28T12:22:48;13.00;99.90
19164;DHT22;9714;51.208;4.242;2023-12-28T12:25:21;13.00;99.90
19164;DHT22;9714;51.208;4.242;2023-12-28T12:27:50;12.90;99.90
19164;DHT22;9714;51.208;4.242;2023-12-28T12:30:19;12.80;99.90
19164;DHT22;9714;51.208;4.242;2023-12-28T12:32:48;12.90;99.90
19164;DHT22;9714;51.208;4.242;2023-12-28T12:35:18;12.90;99.90
19164;DHT22;9714;51.208;4.242;2023-12-28T12:37:48;13.00;99.90
19164;DHT22;9714;51.208;4.242;2023-12-28T12:40:20;13.00;99.90
19164;DHT22;9714;51.208;4.242;2023-12-28T12:42:55;13.00;99.90
19164;DHT22;9714;51.208;4.242;2023-12-28T12:45:24;13.10;99.90
19164;DHT22;9714;51.208;4.242;2023-12-28T12:47:51;13.00;99.90
19164;DHT22;9714;51.208;4.242;2023-12-28T12:50:21;13.10;99.90
19164;DHT22;9714;51.208;4.242;2023-12-28T12:52:49;13.00;99.90
19164;DHT22;9714;51.208;4.242;2023-12-28T12:55:18;13.00;99.90
19164;DHT22;9714;51.208;4.242;2023-12-28T12:57:45;13.10;99.90
19164;DHT22;9714;51.208;4.242;2023-12-28T13:00:13;13.10;99.90
19164;DHT22;9714;51.208;4.242;2023-12-28T13:02:40;12.90;99.90
19164;DHT22;9714;51.208;4.242;2023-12-28T13:05:08;12.90;99.90
19164;DHT22;9714;51.208;4.242;2023-12-28T13:07:37;13.10;99.90
19164;DHT22;9714;51.208;4.242;2023-12-28T13:10:05;13.00;99.90
19164;DHT22;9714;51.208;4.242;2023-12-28T13:12:33;12.90;99.90
19164;DHT22;9714;51.208;4.242;2023-12-28T13:15:03;12.80;99.90
19164;DHT22;9714;51.208;4.242;2023-12-28T13:17:33;12.80;99.90
19164;DHT22;9714;51.208;4.242;2023-12-28T13:20:01;12.80;99.90
19164;DHT22;9714;51.208;4.242;2023-12-28T13:22:30;13.00;99.90
19164;DHT22;9714;51.208;4.242;2023-12-28T13:25:05;12.90;99.90
19164;DHT22;9714;51.208;4.242;2023-12-28T13:27:35;12.90;99.90
19164;DHT22;9714;51.208;4.242;2023-12-28T13:30:03;12.90;99.90
19164;DHT22;9714;51.208;4.242;2023-12-28T13:32:39;13.10;99.90
19164;DHT22;9714;51.208;4.242;2023-12-28T13:35:06;13.10;99.90
19164;DHT22;9714;51.208;4.242;2023-12-28T13:37:35;13.10;99.90
19164;DHT22;9714;51.208;4.242;2023-12-28T13:40:06;13.20;99.90
19164;DHT22;9714;51.208;4.242;2023-12-28T13:42:34;13.10;99.90
19164;DHT22;9714;51.208;4.242;2023-12-28T13:45:01;13.00;99.90
19164;DHT22;9714;51.208;4.242;2023-12-28T13:47:28;13.10;99.90
19164;DHT22;9714;51.208;4.242;2023-12-28T13:49:55;13.00;99.90
19164;DHT22;9714;51.208;4.242;2023-12-28T13:52:22;12.90;99.90
19164;DHT22;9714;51.208;4.242;2023-12-28T13:54:49;12.90;99.90
19164;DHT22;9714;51.208;4.242;2023-12-28T13:57:19;12.90;99.90
19164;DHT22;9714;51.208;4.242;2023-12-28T13:59:46;12.90;99.90
19164;DHT22;9714;51.208;4.242;2023-12-28T14:02:13;12.90;99.90
19164;DHT22;9714;51.208;4.242;2023-12-28T14:04:42;12.90;99.90
19164;DHT22;9714;51.208;4.242;2023-12-28T14:07:09;12.90;99.90
19164;DHT22;9714;51.208;4.242;2023-12-28T14:09:36;12.90;99.90
19164;DHT22;9714;51.208;4.242;2023-12-28T14:12:04;12.80;99.90
19164;DHT22;9714;51.208;4.242;2023-12-28T14:14:33;12.80;99.90
19164;DHT22;9714;51.208;4.242;2023-12-28T14:17:00;12.80;99.90
19164;DHT22;9714;51.208;4.242;2023-12-28T14:19:27;12.90;99.90
19164;DHT22;9714;51.208;4.242;2023-12-28T14:21:55;12.80;99.90
19164;DHT22;9714;51.208;4.242;2023-12-28T14:24:23;12.90;99.90
19164;DHT22;9714;51.208;4.242;2023-12-28T14:26:53;12.90;99.90
19164;DHT22;9714;51.208;4.242;2023-12-28T14:29:21;12.70;99.90
19164;DHT22;9714;51.208;4.242;2023-12-28T14:31:51;12.80;99.90
19164;DHT22;9714;51.208;4.242;2023-12-28T14:34:18;12.80;99.90
19164;DHT22;9714;51.208;4.242;2023-12-28T14:36:47;12.80;99.90
19164;DHT22;9714;51.208;4.242;2023-12-28T14:39:16;12.80;99.90
19164;DHT22;9714;51.208;4.242;2023-12-28T14:41:45;12.70;99.90
19164;DHT22;9714;51.208;4.242;2023-12-28T14:44:12;12.90;99.90
19164;DHT22;9714;51.208;4.242;2023-12-28T14:46:40;12.80;99.90
19164;DHT22;9714;51.208;4.242;2023-12-28T14:49:10;12.80;99.90
19164;DHT22;9714;51.208;4.242;2023-12-28T14:51:37;12.70;99.90
19164;DHT22;9714;51.208;4.242;2023-12-28T14:54:05;12.60;99.90
19164;DHT22;9714;51.208;4.242;2023-12-28T14:56:32;12.60;99.90
19164;DHT22;9714;51.208;4.242;2023-12-28T14:58:59;12.60;99.90
19164;DHT22;9714;51.208;4.242;2023-12-28T15:01:26;12.60;99.90
19164;DHT22;9714;51.208;4.242;2023-12-28T15:03:53;12.60;99.90
19164;DHT22;9714;51.208;4.242;2023-12-28T15:06:21;12.60;99.90
19164;DHT22;9714;51.208;4.242;2023-12-28T15:08:48;12.60;99.90
19164;DHT22;9714;51.208;4.242;2023-12-28T15:11:16;12.60;99.90
19164;DHT22;9714;51.208;4.242;2023-12-28T15:13:44;12.40;99.90
19164;DHT22;9714;51.208;4.242;2023-12-28T15:16:13;12.40;99.90
19164;DHT22;9714;51.208;4.242;2023-12-28T15:18:41;12.40;99.90
19164;DHT22;9714;51.208;4.242;2023-12-28T15:21:09;12.50;99.90
19164;DHT22;9714;51.208;4.242;2023-12-28T15:23:39;12.50;99.90
19164;DHT22;9714;51.208;4.242;2023-12-28T15:26:06;12.50;99.90
19164;DHT22;9714;51.208;4.242;2023-12-28T15:28:33;12.50;99.90
19164;DHT22;9714;51.208;4.242;2023-12-28T15:31:00;12.50;99.90
19164;DHT22;9714;51.208;4.242;2023-12-28T15:33:27;12.50;99.90
19164;DHT22;9714;51.208;4.242;2023-12-28T15:35:54;12.60;99.90
19164;DHT22;9714;51.208;4.242;2023-12-28T15:38:22;12.60;99.90
19164;DHT22;9714;51.208;4.242;2023-12-28T15:40:52;12.40;99.90
19164;DHT22;9714;51.208;4.242;2023-12-28T15:43:19;12.40;99.90
19164;DHT22;9714;51.208;4.242;2023-12-28T15:45:47;12.30;99.90
19164;DHT22;9714;51.208;4.242;2023-12-28T15:48:14;12.30;99.90
19164;DHT22;9714;51.208;4.242;2023-12-28T15:50:41;12.30;99.90
19164;DHT22;9714;51.208;4.242;2023-12-28T15:53:08;12.20;99.90
19164;DHT22;9714;51.208;4.242;2023-12-28T15:55:35;12.20;99.90
19164;DHT22;9714;51.208;4.242;2023-12-28T15:58:06;12.20;99.90
19164;DHT22;9714;51.208;4.242;2023-12-28T16:00:34;12.30;99.90
19164;DHT22;9714;51.208;4.242;2023-12-28T16:03:01;12.20;99.90
19164;DHT22;9714;51.208;4.242;2023-12-28T16:05:28;12.30;99.90